createdAt,value
2023-05-09T07:06:16.398Z,31.10
2023-05-09T07:11:38.362Z,33.08
2023-05-09T07:17:18.153Z,31.89
2023-05-09T07:22:42.538Z,33.30
2023-05-09T07:28:04.846Z,32.22
2023-05-09T07:33:26.890Z,29.27
2023-05-09T07:38:51.154Z,28.13
2023-05-09T07:44:13.765Z,30.23
2023-05-09T07:49:36.391Z,29.49
2023-05-09T07:54:58.470Z,32.42
2023-05-09T08:00:24.572Z,34.47
2023-05-09T08:05:46.391Z,33.13
2023-05-09T08:11:08.782Z,32.66
2023-05-09T08:16:33.327Z,34.53
2023-05-09T08:21:56.133Z,34.84
2023-05-09T08:27:18.274Z,33.66
2023-05-09T08:32:39.926Z,34.17
2023-05-09T08:38:07.157Z,32.29
2023-05-09T08:43:29.943Z,31.79
2023-05-09T08:48:53.283Z,31.69
2023-05-09T08:54:16.389Z,33.59
2023-05-09T08:59:41.145Z,35.28
2023-05-09T09:05:03.491Z,33.89
2023-05-09T09:10:29.591Z,34.25
2023-05-09T09:15:54.242Z,34.36
2023-05-09T09:21:17.799Z,32.64
2023-05-09T09:26:48.127Z,33.82
2023-05-09T09:32:10.224Z,34.52
2023-05-09T09:37:35.172Z,34.51
2023-05-09T09:42:56.989Z,36.64
2023-05-09T09:48:19.061Z,32.59
2023-05-09T09:53:43.074Z,30.88
2023-05-09T09:59:15.195Z,30.77
2023-05-09T10:04:44.036Z,33.21
2023-05-09T10:10:07.061Z,31.54
2023-05-09T10:15:38.438Z,34.09
2023-05-09T10:21:11.314Z,32.34
2023-05-09T10:26:35.499Z,32.14
2023-05-09T10:32:00.773Z,32.11
2023-05-09T10:37:22.762Z,32.29
2023-05-09T10:42:46.197Z,32.21
2023-05-09T10:48:09.668Z,32.47
2023-05-09T10:53:45.674Z,30.81
2023-05-09T10:59:27.754Z,32.06
2023-05-09T11:04:49.698Z,31.22
2023-05-09T11:10:19.092Z,30.28
2023-05-09T11:16:00.134Z,30.44
2023-05-09T11:21:23.724Z,31.84
2023-05-09T11:26:49.035Z,30.89
2023-05-09T11:32:16.533Z,31.53
2023-05-09T11:37:48.678Z,31.78
2023-05-09T11:43:11.331Z,32.15
2023-05-09T11:48:39.726Z,30.68
2023-05-09T11:54:01.404Z,33.32
2023-05-09T11:59:25.244Z,31.40
2023-05-09T12:04:47.202Z,32.01
2023-05-09T12:10:10.618Z,31.87
2023-05-09T12:15:43.480Z,32.61
2023-05-09T12:21:07.719Z,32.30
2023-05-09T12:26:30.217Z,32.60
2023-05-09T12:31:56.198Z,33.50
2023-05-09T12:37:19.816Z,32.42
2023-05-09T12:42:45.589Z,31.43
2023-05-09T12:48:09.769Z,32.04
2023-05-09T12:53:32.109Z,31.41
2023-05-09T12:58:55.477Z,32.09
2023-05-09T13:04:21.451Z,32.76
2023-05-09T13:10:01.441Z,31.99
2023-05-09T13:15:24.659Z,32.35
2023-05-09T13:20:49.303Z,32.69
2023-05-09T13:26:11.375Z,32.09
2023-05-09T13:31:34.266Z,30.14
2023-05-09T13:36:56.803Z,32.65
2023-05-09T13:42:19.306Z,33.27
2023-05-09T13:47:41.372Z,32.00
2023-05-09T13:53:03.801Z,32.99
2023-05-09T13:58:25.363Z,31.33
2023-05-09T14:03:49.559Z,33.00
2023-05-09T14:09:15.761Z,34.06
2023-05-09T14:14:37.868Z,33.48
2023-05-09T14:19:59.771Z,33.08
2023-05-09T14:25:23.279Z,33.24
2023-05-09T14:30:45.248Z,34.26
2023-05-09T14:36:08.131Z,33.22
2023-05-09T14:41:29.952Z,32.66
2023-05-09T14:46:52.135Z,34.42
2023-05-09T14:52:14.412Z,32.23
2023-05-09T14:57:36.763Z,33.48
2023-05-09T15:02:58.887Z,33.21
2023-05-09T15:08:21.306Z,32.69
2023-05-09T15:13:43.438Z,33.29
2023-05-09T15:19:05.889Z,33.19
2023-05-09T15:24:27.903Z,35.92
2023-05-09T15:29:49.793Z,33.37
2023-05-09T15:35:12.043Z,35.93
2023-05-09T15:40:34.480Z,35.29
2023-05-09T15:45:56.664Z,35.46
2023-05-09T15:51:18.919Z,36.24
2023-05-09T15:56:41.171Z,35.75
2023-05-09T16:02:03.258Z,36.99
2023-05-09T16:07:25.714Z,36.79
2023-05-09T16:12:48.003Z,37.58
2023-05-09T16:18:10.237Z,38.05
2023-05-09T16:23:32.226Z,38.61
2023-05-09T16:28:54.114Z,39.48
2023-05-09T16:34:16.146Z,39.57
2023-05-09T16:39:38.258Z,39.86
2023-05-09T16:45:00.646Z,40.55
2023-05-09T16:50:22.428Z,41.13
2023-05-09T16:55:44.603Z,42.61
2023-05-09T17:01:07.286Z,45.76
2023-05-09T17:06:29.343Z,46.92
2023-05-09T17:11:51.282Z,47.94
2023-05-09T17:17:14.116Z,49.56
2023-05-09T17:22:37.125Z,52.14
2023-05-09T17:27:59.426Z,50.34
2023-05-09T17:33:21.866Z,51.69
2023-05-09T17:38:44.187Z,53.29
2023-05-09T17:44:06.550Z,52.17
2023-05-09T17:49:30.039Z,53.78
2023-05-09T17:54:52.091Z,54.69
2023-05-09T18:00:15.706Z,55.76
2023-05-09T18:05:38.506Z,58.45
2023-05-09T18:11:00.387Z,58.44
2023-05-09T18:16:22.699Z,58.42
2023-05-09T18:34:04.507Z,60.58
2023-05-09T18:39:26.769Z,59.78
2023-05-09T18:44:49.008Z,63.95
2023-05-09T18:50:12.009Z,65.12
2023-05-09T18:55:34.287Z,76.09
2023-05-09T19:00:55.888Z,68.64
2023-05-09T19:06:18.146Z,70.28
2023-05-09T19:11:40.095Z,77.57
2023-05-09T19:17:02.319Z,83.65
2023-05-09T19:22:24.514Z,97.29
2023-05-09T19:27:47.160Z,97.91
2023-05-09T19:33:09.089Z,88.72
2023-05-09T19:38:31.816Z,91.68
2023-05-09T19:43:54.173Z,87.21
2023-05-09T19:49:18.004Z,89.64
2023-05-09T19:54:40.394Z,89.89
2023-05-09T20:00:02.668Z,97.16
2023-05-09T20:05:42.137Z,100.00
2023-05-09T20:11:09.353Z,98.64
2023-05-09T20:16:33.351Z,99.36
2023-05-09T20:21:55.330Z,100.00
2023-05-09T20:27:17.998Z,100.00
2023-05-09T20:32:40.380Z,100.00
2023-05-09T20:38:04.238Z,100.00
2023-05-09T20:43:27.170Z,100.00
2023-05-09T20:48:49.679Z,100.00
2023-05-09T20:54:12.354Z,100.00
2023-05-09T20:59:34.677Z,100.00
2023-05-09T21:04:57.306Z,100.00
2023-05-09T21:10:19.559Z,100.00
2023-05-09T21:15:42.340Z,100.00
2023-05-09T21:21:08.832Z,100.00
2023-05-09T21:26:30.901Z,100.00
2023-05-09T21:31:52.803Z,100.00
2023-05-09T21:37:15.719Z,100.00
2023-05-09T21:42:40.565Z,100.00
2023-05-09T21:48:03.249Z,100.00
2023-05-09T21:53:25.982Z,100.00
2023-05-09T21:58:47.829Z,100.00
2023-05-09T22:04:09.902Z,100.00
2023-05-09T22:09:32.143Z,97.83
2023-05-09T22:14:56.725Z,94.62
2023-05-09T22:20:19.353Z,85.96
2023-05-09T22:25:41.258Z,100.00
2023-05-09T22:31:05.824Z,100.00
2023-05-09T22:36:27.409Z,100.00
2023-05-09T22:41:50.708Z,100.00
2023-05-09T22:47:13.024Z,100.00
2023-05-09T22:52:37.502Z,90.80
2023-05-09T22:57:59.549Z,93.89
2023-05-09T23:03:23.041Z,94.87
2023-05-09T23:08:45.788Z,96.53
2023-05-09T23:14:08.026Z,100.00
2023-05-09T23:19:55.038Z,97.35
2023-05-09T23:25:19.350Z,98.59
2023-05-09T23:30:42.407Z,89.80
2023-05-09T23:36:07.757Z,79.96
2023-05-09T23:41:30.165Z,89.80
2023-05-09T23:46:51.984Z,100.00
2023-05-09T23:52:15.405Z,100.00
2023-05-09T23:57:38.106Z,100.00
